CheckWX is a tool to help pilots better visualize weather data.  It is not intended as a substitute for an official pre-flight weather briefing.

07:09:25 UTC

KELY METAR
Ely Arpt / Yelland Field / Airport
Ely, Nevada, USA
Current

16 mins ago

KELY 180653Z AUTO 20006KT 10SM CLR 07/06 A3019 RMK AO2 SLP152 T00720061
Observed
Jun-18 @ 06:53 UTC
Wind
  • 200° at 6 KTS
Visibility
10 SM
Flight Rules
VFR
Cloud Levels
  • Clear skies
Temperature
C / 45°F
Dewpoint
C / 43°F
Humidity
93%
Altimeter
30.19" Hg
Pressure
1022.32 hPa
Previous

1 hour ago

KELY 180553Z AUTO 18009KT 10SM CLR 09/07 A3020 RMK AO2 SLP153 T00940067 10167 20083 51009
Observed
Jun-18 @ 05:53 UTC
Wind
  • 180° at 9 KTS
Visibility
10 SM
Flight Rules
VFR
Cloud Levels
  • Clear skies
Temperature
C / 48°F
Dewpoint
C / 45°F
Humidity
87%
Altimeter
30.2" Hg
Pressure
1022.72 hPa
Previous

2 hours ago

KELY 180453Z AUTO 17011KT 10SM CLR 09/07 A3020 RMK AO2 SLP150 T00940067
Observed
Jun-18 @ 04:53 UTC
Wind
  • 170° at 11 KTS
Visibility
10 SM
Flight Rules
VFR
Cloud Levels
  • Clear skies
Temperature
C / 48°F
Dewpoint
C / 45°F
Humidity
87%
Altimeter
30.2" Hg
Pressure
1022.72 hPa